Time;durP1;ratioP1;P1;durP2;ratioP2;P2;SDS_P1;SDS_P2;PMS_P1;PMS_P2;Temp;Humidity;BMP_temperature;BMP_pressure;BME280_temperature;BME280_humidity;BME280_pressure;Samples;Min_cycle;Max_cycle;Signal;HPM_P1;HPM_P2
2023/01/11 00:01:52;;;;;;;7.00;1.37;;;;;11.30;100259.00;;;;9877640;30;20211;-77
2023/01/11 00:06:55;;;;;;;4.07;1.70;;;;;11.20;100244.00;;;;9878017;30;20215;-77
2023/01/11 00:11:57;;;;;;;6.00;1.87;;;;;11.10;100246.00;;;;9907374;29;20235;-77
2023/01/11 00:16:59;;;;;;;5.50;1.70;;;;;10.90;100254.00;;;;9890315;30;20199;-77
2023/01/11 00:22:01;;;;;;;3.87;1.47;;;;;10.90;100260.00;;;;9891621;30;20203;-77
2023/01/11 00:27:03;;;;;;;5.90;1.80;;;;;10.80;100258.00;;;;9862821;30;20239;-77
2023/01/11 00:32:05;;;;;;;6.50;1.40;;;;;10.90;100255.00;;;;9863587;30;20206;-78
2023/01/11 00:37:09;;;;;;;1.90;1.27;;;;;10.80;100244.00;;;;9896894;30;20203;-79
2023/01/11 00:52:52;;;;;;;4.10;1.73;;;;;10.90;100231.00;;;;9893611;30;20891;-78
2023/01/11 00:57:54;;;;;;;2.37;1.40;;;;;10.90;100218.00;;;;9876942;30;20252;-79
2023/01/11 01:02:56;;;;;;;3.77;1.70;;;;;10.90;100218.00;;;;9889782;30;20206;-79
2023/01/11 01:07:59;;;;;;;2.10;1.90;;;;;10.90;100202.00;;;;9865579;30;20272;-79
2023/01/11 01:18:21;;;;;;;2.80;1.33;;;;;11.00;100204.00;;;;9893459;30;20222;-78
2023/01/11 01:23:23;;;;;;;2.93;1.20;;;;;11.00;100209.00;;;;9876233;30;20203;-78
2023/01/11 01:28:25;;;;;;;2.30;1.20;;;;;11.00;100211.00;;;;9869785;30;20619;-78
2023/01/11 01:33:27;;;;;;;3.53;1.00;;;;;11.00;100213.00;;;;9873190;30;20241;-79
2023/01/11 01:38:29;;;;;;;4.17;1.20;;;;;11.00;100224.00;;;;9878353;30;20203;-78
2023/01/11 01:44:05;;;;;;;2.43;1.07;;;;;11.10;100224.00;;;;9876440;30;20218;-78
2023/01/11 01:49:12;;;;;;;1.43;1.07;;;;;11.10;100225.00;;;;9860803;30;20224;-79
2023/01/11 01:54:19;;;;;;;1.67;0.93;;;;;11.10;100224.00;;;;9875759;30;20797;-79
2023/01/11 01:59:24;;;;;;;4.77;2.00;;;;;11.10;100218.00;;;;9892470;30;20613;-79
2023/01/11 02:04:46;;;;;;;2.07;1.10;;;;;11.20;100227.00;;;;9879552;30;20200;-79
2023/01/11 02:10:01;;;;;;;3.13;1.50;;;;;11.20;100227.00;;;;9872397;29;20318;-79
2023/01/11 02:15:04;;;;;;;1.93;0.63;;;;;11.20;100213.00;;;;9858423;30;20216;-79
2023/01/11 02:20:07;;;;;;;0.90;0.67;;;;;11.20;100221.00;;;;9902942;30;20307;-80
2023/01/11 02:25:34;;;;;;;2.23;1.20;;;;;11.20;100209.00;;;;9874068;30;20283;-79
2023/01/11 02:30:47;;;;;;;4.57;1.10;;;;;11.30;100190.00;;;;9872483;30;20219;-78
2023/01/11 02:36:08;;;;;;;3.30;0.97;;;;;11.30;100205.00;;;;9874794;30;20200;-78
2023/01/11 02:45:00;;;;;;;0.97;0.80;;;;;11.30;100192.00;;;;9878208;30;20204;-79
2023/01/11 02:46:57;;;;;;;1.43;0.83;;;;;11.30;100191.00;;;;9885650;30;20675;-78
2023/01/11 02:52:11;;;;;;;3.40;0.90;;;;;11.40;100191.00;;;;9873812;30;20207;-78
2023/01/11 02:57:14;;;;;;;2.30;0.80;;;;;11.40;100189.00;;;;9880695;30;20267;-79
2023/01/11 03:02:16;;;;;;;1.70;0.50;;;;;11.40;100186.00;;;;9857556;30;20626;-80
2023/01/11 03:07:44;;;;;;;0.80;0.80;;;;;11.40;100173.00;;;;9856937;30;20223;-80
2023/01/11 03:13:10;;;;;;;2.83;0.80;;;;;11.30;100188.00;;;;9841433;30;20235;-81
2023/01/11 03:18:30;;;;;;;0.60;0.60;;;;;11.30;100168.00;;;;9885796;29;20679;-80
2023/01/11 03:23:41;;;;;;;0.60;0.60;;;;;11.30;100190.00;;;;9841910;30;20199;-80
2023/01/11 03:29:10;;;;;;;1.47;0.90;;;;;11.30;100186.00;;;;9884667;30;20493;-80
2023/01/11 03:34:16;;;;;;;1.20;0.60;;;;;11.30;100188.00;;;;9864768;29;20203;-81
2023/01/11 03:39:27;;;;;;;0.77;0.70;;;;;11.30;100193.00;;;;9875706;30;20214;-81
2023/01/11 03:44:34;;;;;;;0.80;0.50;;;;;11.30;100196.00;;;;9885057;30;20204;-80
2023/01/11 03:49:40;;;;;;;0.70;0.70;;;;;11.30;100198.00;;;;9871719;30;20237;-80
2023/01/11 03:54:44;;;;;;;0.97;0.90;;;;;11.30;100198.00;;;;9855253;30;20253;-81
2023/01/11 03:59:47;;;;;;;0.77;0.77;;;;;11.30;100209.00;;;;9856429;30;20212;-81
2023/01/11 04:04:49;;;;;;;1.37;0.43;;;;;11.30;100208.00;;;;9885410;30;20196;-80
2023/01/11 04:09:51;;;;;;;2.27;0.70;;;;;11.30;100206.00;;;;9841480;29;20223;-80
2023/01/11 04:14:53;;;;;;;1.40;0.67;;;;;11.30;100211.00;;;;9869740;30;20212;-80
2023/01/11 04:19:55;;;;;;;0.67;0.50;;;;;11.30;100218.00;;;;9872653;30;20277;-82
2023/01/11 04:24:57;;;;;;;0.40;0.40;;;;;11.30;100218.00;;;;9858049;30;20191;-81
2023/01/11 04:29:59;;;;;;;1.07;0.60;;;;;11.30;100227.00;;;;9869603;29;20216;-80
2023/01/11 04:35:01;;;;;;;1.53;0.50;;;;;11.30;100227.00;;;;9846360;29;20192;-80
2023/01/11 04:40:03;;;;;;;0.60;0.57;;;;;11.30;100223.00;;;;9862738;30;20206;-80
2023/01/11 04:45:05;;;;;;;1.67;0.57;;;;;11.20;100239.00;;;;9854838;30;20315;-79
2023/01/11 04:50:08;;;;;;;1.57;0.60;;;;;11.20;100240.00;;;;9861346;30;20299;-79
2023/01/11 04:55:10;;;;;;;0.53;0.53;;;;;11.20;100252.00;;;;9905398;30;20692;-79
2023/01/11 05:00:14;;;;;;;0.67;0.67;;;;;11.10;100267.00;;;;9860334;30;20237;-79
2023/01/11 05:05:16;;;;;;;0.57;0.50;;;;;11.10;100274.00;;;;9867146;30;20920;-79
2023/01/11 05:10:18;;;;;;;2.87;0.83;;;;;11.10;100266.00;;;;9889560;29;20254;-78
2023/01/11 05:15:22;;;;;;;1.10;0.97;;;;;11.10;100274.00;;;;9874818;29;20294;-78
2023/01/11 05:20:23;;;;;;;4.83;1.20;;;;;11.00;100286.00;;;;9873619;30;20203;-79
2023/01/11 05:25:25;;;;;;;2.73;1.50;;;;;11.00;100285.00;;;;9873828;30;20207;-78
2023/01/11 05:30:27;;;;;;;2.97;1.87;;;;;10.90;100281.00;;;;9919236;29;20303;-78
2023/01/11 05:35:29;;;;;;;5.43;1.87;;;;;10.90;100294.00;;;;9867096;29;20215;-79
2023/01/11 05:40:31;;;;;;;6.27;1.93;;;;;10.80;100305.00;;;;9858826;30;20219;-78
2023/01/11 05:45:34;;;;;;;3.93;1.90;;;;;10.80;100310.00;;;;9864318;30;20672;-78
2023/01/11 05:50:36;;;;;;;5.03;1.77;;;;;10.80;100308.00;;;;9889685;29;20231;-77
2023/01/11 05:55:38;;;;;;;7.63;2.00;;;;;10.80;100292.00;;;;9879725;30;20683;-78
2023/01/11 06:00:40;;;;;;;5.97;1.83;;;;;10.70;100320.00;;;;9887599;29;20195;-78
2023/01/11 06:05:42;;;;;;;12.47;2.30;;;;;10.70;100311.00;;;;9878891;29;20192;-78
2023/01/11 06:10:54;;;;;;;7.17;2.23;;;;;10.70;100320.00;;;;9881294;29;20318;-79
2023/01/11 06:16:05;;;;;;;11.90;2.20;;;;;10.60;100337.00;;;;9879548;30;20619;-78
2023/01/11 06:21:08;;;;;;;10.07;2.57;;;;;10.50;100337.00;;;;9857456;30;20195;-78
2023/01/11 06:26:13;;;;;;;9.67;2.60;;;;;10.50;100345.00;;;;9871743;30;20227;-79
2023/01/11 06:31:15;;;;;;;10.20;2.70;;;;;10.50;100360.00;;;;9872212;30;20235;-78
2023/01/11 06:36:19;;;;;;;19.43;2.40;;;;;10.50;100360.00;;;;9884412;30;20204;-79
2023/01/11 06:41:21;;;;;;;7.93;3.30;;;;;10.40;100380.00;;;;9886432;30;20200;-78
2023/01/11 06:46:22;;;;;;;12.47;2.23;;;;;10.40;100396.00;;;;9877614;30;20204;-79
2023/01/11 06:51:24;;;;;;;13.50;2.50;;;;;10.40;100406.00;;;;9882517;29;20267;-79
2023/01/11 06:56:26;;;;;;;16.90;2.97;;;;;10.40;100401.00;;;;9880658;30;20350;-79
2023/01/11 07:01:29;;;;;;;14.57;2.63;;;;;10.30;100403.00;;;;9872110;30;20235;-79
2023/01/11 07:06:34;;;;;;;12.03;2.17;;;;;10.20;100425.00;;;;9849676;30;20252;-80
2023/01/11 07:11:38;;;;;;;19.50;2.23;;;;;10.10;100437.00;;;;9849559;30;20232;-79
2023/01/11 07:16:40;;;;;;;7.83;2.00;;;;;10.10;100450.00;;;;9856510;30;20203;-78
2023/01/11 07:21:42;;;;;;;12.63;2.73;;;;;10.00;100443.00;;;;9832164;30;20203;-79
2023/01/11 07:26:44;;;;;;;12.90;2.70;;;;;9.90;100469.00;;;;9871288;30;20235;-79
2023/01/11 07:31:47;;;;;;;9.53;3.00;;;;;9.80;100448.00;;;;9871932;30;20294;-79
2023/01/11 07:36:49;;;;;;;15.10;2.40;;;;;9.70;100467.00;;;;9876546;30;20208;-78
2023/01/11 07:47:11;;;;;;;16.27;2.30;;;;;9.50;100501.00;;;;9900083;30;20548;-79
2023/01/11 07:52:13;;;;;;;7.30;2.30;;;;;9.30;100511.00;;;;9876201;30;20207;-78
2023/01/11 07:57:15;;;;;;;14.00;2.13;;;;;9.20;100533.00;;;;9882541;30;20280;-79
2023/01/11 08:02:17;;;;;;;8.90;1.87;;;;;9.10;100556.00;;;;9859098;29;20265;-79
2023/01/11 08:07:19;;;;;;;12.10;2.33;;;;;9.00;100546.00;;;;9870792;29;20683;-79
2023/01/11 08:17:41;;;;;;;13.83;2.40;;;;;9.00;100567.00;;;;9872296;30;20323;-78
2023/01/11 08:22:43;;;;;;;13.23;2.30;;;;;9.00;100577.00;;;;9860648;30;20199;-79
2023/01/11 08:27:45;;;;;;;17.20;2.87;;;;;8.90;100579.00;;;;9844779;30;20214;-78
2023/01/11 08:32:47;;;;;;;8.43;1.83;;;;;8.90;100586.00;;;;9856788;30;20252;-78
2023/01/11 08:37:49;;;;;;;9.97;2.13;;;;;8.90;100611.00;;;;9874249;30;20663;-79
2023/01/11 08:42:58;;;;;;;12.50;2.67;;;;;9.00;100628.00;;;;9902670;30;20207;-79
2023/01/11 08:48:00;;;;;;;14.73;2.07;;;;;9.10;100631.00;;;;9884866;30;20674;-79
2023/01/11 08:53:02;;;;;;;20.60;2.87;;;;;9.00;100630.00;;;;9868816;30;20204;-79
2023/01/11 08:58:03;;;;;;;7.50;1.50;;;;;8.90;100618.00;;;;9875009;30;21035;-79
2023/01/11 09:03:06;;;;;;;13.03;2.23;;;;;8.80;100618.00;;;;9891314;29;20218;-79
2023/01/11 09:08:08;;;;;;;13.10;2.90;;;;;8.80;100627.00;;;;9906224;29;20337;-78
2023/01/11 09:13:10;;;;;;;9.23;2.13;;;;;8.80;100642.00;;;;9868483;30;20234;-78
2023/01/11 09:18:13;;;;;;;12.37;2.30;;;;;8.80;100648.00;;;;9864914;29;20207;-78
2023/01/11 09:23:15;;;;;;;16.87;2.17;;;;;9.00;100657.00;;;;9861471;30;20204;-79
2023/01/11 09:28:17;;;;;;;18.47;2.87;;;;;9.50;100656.00;;;;9850607;29;20216;-79
2023/01/11 09:33:19;;;;;;;10.20;2.67;;;;;10.10;100660.00;;;;9872887;29;20234;-78
2023/01/11 09:38:24;;;;;;;19.03;3.47;;;;;10.40;100666.00;;;;9847304;30;20598;-79
2023/01/11 09:43:29;;;;;;;12.63;2.40;;;;;10.60;100685.00;;;;9861210;30;20212;-79
2023/01/11 09:48:43;;;;;;;16.57;2.83;;;;;10.80;100694.00;;;;9863366;30;20219;-79
2023/01/11 09:53:51;;;;;;;11.30;2.50;;;;;11.00;100699.00;;;;9853742;30;20200;-79
2023/01/11 09:58:58;;;;;;;18.17;2.50;;;;;11.20;100717.00;;;;9849217;30;20196;-79
2023/01/11 10:04:24;;;;;;;20.60;3.87;;;;;11.30;100728.00;;;;9897326;29;20200;-79
2023/01/11 10:10:02;;;;;;;27.93;3.90;;;;;11.50;100726.00;;;;9898466;30;20318;-79
2023/01/11 10:15:36;;;;;;;15.23;3.60;;;;;11.60;100724.00;;;;9861061;30;20261;-78
2023/01/11 10:21:15;;;;;;;17.33;3.30;;;;;11.80;100718.00;;;;9871569;30;20282;-78
2023/01/11 10:26:34;;;;;;;13.73;2.80;;;;;11.80;100719.00;;;;9897888;29;20210;-78
2023/01/11 10:32:21;;;;;;;12.13;2.67;;;;;11.80;100714.00;;;;9857597;29;20224;-79
2023/01/11 10:42:39;;;;;;;16.83;2.97;;;;;12.30;100714.00;;;;9864981;30;20195;-79
2023/01/11 10:47:55;;;;;;;18.53;2.87;;;;;12.20;100699.00;;;;9894974;30;20830;-79
2023/01/11 10:53:16;;;;;;;9.17;3.00;;;;;12.20;100701.00;;;;9881959;30;20208;-79
2023/01/11 10:58:39;;;;;;;17.80;3.07;;;;;12.30;100717.00;;;;9865107;30;20248;-79
2023/01/11 11:04:11;;;;;;;11.60;3.23;;;;;12.50;100707.00;;;;9855258;29;20676;-79
2023/01/11 11:09:48;;;;;;;16.87;2.90;;;;;12.70;100715.00;;;;9898111;29;20247;-79
2023/01/11 11:14:53;;;;;;;11.47;2.50;;;;;12.90;100708.00;;;;9885469;29;20212;-79
2023/01/11 11:19:56;;;;;;;16.90;3.60;;;;;13.10;100718.00;;;;9871589;29;20203;-79
2023/01/11 11:25:02;;;;;;;13.63;3.10;;;;;13.60;100720.00;;;;9853705;29;20217;-79
2023/01/11 11:30:08;;;;;;;19.13;3.35;;;;;14.00;100731.00;;;;9885362;29;20580;-78
2023/01/11 11:35:30;;;;;;;17.70;3.47;;;;;13.40;100743.00;;;;9853318;29;20249;-79
2023/01/11 11:40:36;;;;;;;17.42;3.10;;;;;13.00;100750.00;;;;9868547;29;20252;-78
2023/01/11 11:45:58;;;;;;;18.73;3.80;;;;;12.60;100772.00;;;;9875536;29;20202;-79
2023/01/11 11:51:04;;;;;;;9.30;2.67;;;;;12.70;100775.00;;;;9865775;30;20506;-79
2023/01/11 11:56:28;;;;;;;12.37;2.47;;;;;12.40;100764.00;;;;9906707;29;20207;-78
2023/01/11 12:01:33;;;;;;;15.20;3.37;;;;;12.50;100758.00;;;;9878573;30;20758;-79
2023/01/11 12:06:35;;;;;;;12.90;3.73;;;;;12.50;100754.00;;;;9892329;29;20743;-79
2023/01/11 12:11:41;;;;;;;21.73;3.40;;;;;13.00;100744.00;;;;9876503;30;20319;-78
2023/01/11 12:16:44;;;;;;;21.17;3.33;;;;;12.60;100748.00;;;;9885154;30;20234;-78
2023/01/11 12:21:46;;;;;;;18.40;3.87;;;;;12.70;100743.00;;;;9871194;29;20199;-79
2023/01/11 12:26:54;;;;;;;17.20;2.93;;;;;12.60;100741.00;;;;9907622;29;20208;-78
2023/01/11 12:32:14;;;;;;;13.67;3.20;;;;;12.50;100728.00;;;;9857418;30;20319;-78
2023/01/11 12:37:37;;;;;;;11.97;3.20;;;;;12.40;100742.00;;;;9891286;30;20711;-79
2023/01/11 12:42:55;;;;;;;15.77;2.87;;;;;13.10;100730.00;;;;9866419;30;20192;-78
2023/01/11 12:48:15;;;;;;;20.87;2.77;;;;;12.50;100725.00;;;;9858527;29;20216;-79
2023/01/11 12:53:26;;;;;;;10.43;2.77;;;;;12.40;100717.00;;;;9873410;29;20303;-79
2023/01/11 12:58:37;;;;;;;10.93;3.37;;;;;12.20;100721.00;;;;9885186;30;20611;-79
2023/01/11 13:04:00;;;;;;;16.40;2.97;;;;;11.90;100719.00;;;;9860794;30;20204;-79
2023/01/11 13:09:13;;;;;;;15.40;3.50;;;;;12.30;100728.00;;;;9890911;29;20215;-78
2023/01/11 13:14:39;;;;;;;14.97;2.30;;;;;12.70;100717.00;;;;9859985;30;20311;-79
2023/01/11 13:20:05;;;;;;;10.73;2.83;;;;;12.70;100726.00;;;;9851438;30;20199;-79
2023/01/11 13:25:22;;;;;;;9.73;2.47;;;;;13.40;100729.00;;;;9874719;30;20572;-78
2023/01/11 13:30:25;;;;;;;9.97;2.67;;;;;13.30;100723.00;;;;9858244;30;20265;-79
2023/01/11 13:35:35;;;;;;;13.47;2.30;;;;;12.20;100723.00;;;;9888745;30;20600;-79
2023/01/11 13:40:45;;;;;;;13.43;2.57;;;;;11.40;100743.00;;;;9856354;30;20199;-79
2023/01/11 13:46:04;;;;;;;9.73;2.27;;;;;10.80;100745.00;;;;9889409;29;20239;-79
2023/01/11 13:51:38;;;;;;;11.53;2.40;;;;;10.60;100755.00;;;;9857564;30;20333;-79
2023/01/11 13:56:41;;;;;;;9.87;2.30;;;;;10.80;100746.00;;;;9893682;29;20247;-79
2023/01/11 14:01:58;;;;;;;11.83;3.10;;;;;11.30;100738.00;;;;9856197;30;20533;-79
2023/01/11 14:07:06;;;;;;;12.93;2.30;;;;;11.50;100740.00;;;;9871306;29;20203;-80
2023/01/11 14:12:31;;;;;;;11.40;2.10;;;;;11.40;100737.00;;;;9868655;30;20258;-79
2023/01/11 14:18:04;;;;;;;10.23;2.80;;;;;11.10;100727.00;;;;9873470;29;20204;-79
2023/01/11 14:23:06;;;;;;;11.07;2.20;;;;;10.90;100738.00;;;;9865612;30;20203;-79
2023/01/11 14:28:24;;;;;;;11.57;2.13;;;;;10.60;100747.00;;;;9874765;29;20220;-79
2023/01/11 14:33:38;;;;;;;5.67;1.73;;;;;10.70;100748.00;;;;9841263;29;20288;-79
2023/01/11 14:38:43;;;;;;;9.63;3.30;;;;;10.70;100733.00;;;;9866583;29;20200;-79
2023/01/11 14:44:03;;;;;;;12.80;1.87;;;;;10.70;100738.00;;;;9868847;29;20226;-78
2023/01/11 14:49:14;;;;;;;9.13;2.43;;;;;10.60;100735.00;;;;9855286;29;20580;-79
2023/01/11 14:54:24;;;;;;;8.87;2.63;;;;;10.30;100749.00;;;;9877990;29;20204;-79
2023/01/11 14:59:29;;;;;;;10.17;2.20;;;;;10.10;100743.00;;;;9874211;29;20196;-79
2023/01/11 15:04:52;;;;;;;12.10;2.67;;;;;10.00;100747.00;;;;9878528;29;20669;-79
2023/01/11 15:10:00;;;;;;;10.93;1.80;;;;;9.90;100755.00;;;;9863574;29;20227;-78
2023/01/11 15:15:06;;;;;;;11.40;2.17;;;;;9.70;100761.00;;;;9861122;29;20208;-79
2023/01/11 15:20:13;;;;;;;14.87;2.17;;;;;9.50;100766.00;;;;9867786;30;20749;-78
2023/01/11 15:25:29;;;;;;;12.20;2.33;;;;;9.30;100779.00;;;;9872892;30;20699;-78
2023/01/11 15:30:36;;;;;;;8.37;1.77;;;;;9.30;100782.00;;;;9857911;30;20221;-79
2023/01/11 15:35:38;;;;;;;7.50;2.17;;;;;9.30;100779.00;;;;9892385;29;20215;-78
2023/01/11 15:40:42;;;;;;;7.77;2.23;;;;;9.20;100776.00;;;;9872992;30;20195;-78
2023/01/11 15:52:12;;;;;;;12.10;2.73;;;;;9.10;100768.00;;;;9877140;30;20302;-78
2023/01/11 15:57:28;;;;;;;9.63;2.30;;;;;9.00;100773.00;;;;9894086;30;20298;-79
2023/01/11 16:02:36;;;;;;;12.77;2.53;;;;;9.20;100783.00;;;;9876977;30;20213;-78
2023/01/11 16:07:56;;;;;;;10.50;1.73;;;;;9.30;100794.00;;;;9895764;30;20265;-79
2023/01/11 16:13:35;;;;;;;8.57;1.77;;;;;9.10;100794.00;;;;9856296;30;20247;-79
2023/01/11 16:18:45;;;;;;;12.73;3.30;;;;;9.00;100808.00;;;;9872019;30;20206;-79
2023/01/11 16:23:47;;;;;;;16.77;4.43;;;;;8.90;100807.00;;;;9869922;30;20188;-78
2023/01/11 16:28:54;;;;;;;9.90;1.97;;;;;8.90;100793.00;;;;9874261;30;20589;-79
2023/01/11 16:34:05;;;;;;;15.07;4.23;;;;;8.90;100796.00;;;;9880251;29;20272;-79
2023/01/11 16:39:12;;;;;;;12.87;4.40;;;;;8.90;100788.00;;;;9895682;29;20636;-78
2023/01/11 16:44:22;;;;;;;10.97;2.30;;;;;8.90;100811.00;;;;9861872;29;20199;-79
2023/01/11 16:49:24;;;;;;;18.40;7.37;;;;;8.80;100808.00;;;;9898136;30;20216;-78
2023/01/11 16:54:29;;;;;;;8.17;2.10;;;;;8.80;100818.00;;;;9899732;29;20203;-79
2023/01/11 16:59:33;;;;;;;13.97;2.60;;;;;8.80;100816.00;;;;9887608;29;20214;-79
2023/01/11 17:04:37;;;;;;;13.60;2.37;;;;;8.80;100813.00;;;;9890663;29;20208;-78
2023/01/11 17:09:39;;;;;;;13.30;2.97;;;;;8.80;100814.00;;;;9877324;29;20230;-79
2023/01/11 17:15:14;;;;;;;9.53;3.87;;;;;8.90;100817.00;;;;9886871;29;20204;-79
2023/01/11 17:20:24;;;;;;;11.23;2.83;;;;;8.80;100817.00;;;;9903559;29;20207;-78
2023/01/11 17:25:30;;;;;;;6.70;1.83;;;;;8.90;100816.00;;;;9870660;29;20472;-79
2023/01/11 17:30:47;;;;;;;10.83;3.10;;;;;8.90;100810.00;;;;9885934;29;20216;-79
2023/01/11 17:35:49;;;;;;;13.33;4.53;;;;;8.90;100803.00;;;;9875476;29;20192;-79
2023/01/11 17:40:55;;;;;;;10.57;2.43;;;;;8.90;100791.00;;;;9861780;29;20195;-79
2023/01/11 17:46:01;;;;;;;15.33;4.50;;;;;8.90;100791.00;;;;9869000;29;20199;-80
2023/01/11 17:51:04;;;;;;;6.50;2.00;;;;;8.90;100774.00;;;;9863898;29;20250;-79
2023/01/11 17:56:42;;;;;;;6.40;2.70;;;;;9.00;100783.00;;;;9888644;29;20314;-79
2023/01/11 18:01:49;;;;;;;8.37;2.07;;;;;9.10;100772.00;;;;9886403;30;20616;-78
2023/01/11 18:07:03;;;;;;;8.97;1.73;;;;;9.10;100774.00;;;;9886305;29;20211;-79
2023/01/11 18:12:21;;;;;;;8.53;3.00;;;;;9.10;100778.00;;;;9880467;29;20231;-79
2023/01/11 18:17:40;;;;;;;14.20;3.70;;;;;9.00;100778.00;;;;9891805;29;20214;-78
2023/01/11 18:23:06;;;;;;;11.20;2.47;;;;;9.00;100781.00;;;;9870684;29;20211;-79
2023/01/11 18:28:17;;;;;;;7.00;1.83;;;;;9.00;100775.00;;;;9878930;29;20188;-79
2023/01/11 18:33:22;;;;;;;18.93;2.50;;;;;9.00;100770.00;;;;9858256;29;20233;-79
2023/01/11 18:38:27;;;;;;;8.57;2.60;;;;;9.00;100756.00;;;;9852440;29;20210;-79
2023/01/11 18:43:30;;;;;;;10.63;2.40;;;;;9.10;100766.00;;;;9853609;29;20224;-78
2023/01/11 18:48:32;;;;;;;9.27;2.30;;;;;9.10;100752.00;;;;9871443;29;20211;-79
2023/01/11 18:53:33;;;;;;;10.43;2.43;;;;;9.20;100755.00;;;;9877845;29;20892;-78
2023/01/11 18:58:36;;;;;;;7.07;2.10;;;;;9.20;100733.00;;;;9860610;29;20199;-80
2023/01/11 19:03:38;;;;;;;7.13;1.80;;;;;9.20;100740.00;;;;9871404;29;20216;-79
2023/01/11 19:08:40;;;;;;;10.33;2.43;;;;;9.20;100725.00;;;;9870820;29;20247;-79
2023/01/11 19:13:42;;;;;;;12.57;2.47;;;;;9.30;100699.00;;;;9846037;29;20232;-80
2023/01/11 19:18:47;;;;;;;13.23;3.17;;;;;9.30;100696.00;;;;9841728;29;20294;-79
2023/01/11 19:23:50;;;;;;;10.43;2.50;;;;;9.40;100700.00;;;;9886798;29;20192;-79
2023/01/11 19:28:52;;;;;;;11.27;1.57;;;;;9.40;100686.00;;;;9856131;29;20220;-79
2023/01/11 19:33:54;;;;;;;12.90;4.10;;;;;9.50;100714.00;;;;9888297;29;20211;-79
2023/01/11 19:38:56;;;;;;;13.87;2.37;;;;;9.50;100697.00;;;;9854292;29;20611;-78
2023/01/11 19:43:57;;;;;;;6.73;2.40;;;;;9.40;100717.00;;;;9876899;29;20203;-79
2023/01/11 19:48:59;;;;;;;9.13;2.33;;;;;9.00;100689.00;;;;9856654;29;20551;-79
2023/01/11 19:54:01;;;;;;;9.17;2.40;;;;;8.90;100692.00;;;;9873423;29;20211;-78
2023/01/11 19:59:03;;;;;;;11.50;2.27;;;;;9.00;100690.00;;;;9849771;30;20299;-78
2023/01/11 20:04:05;;;;;;;9.20;2.87;;;;;8.90;100666.00;;;;9888087;30;20196;-78
2023/01/11 20:09:09;;;;;;;7.37;2.00;;;;;8.70;100700.00;;;;9881174;29;20562;-78
2023/01/11 20:14:11;;;;;;;8.37;2.33;;;;;8.60;100682.00;;;;9883171;29;20213;-79
2023/01/11 20:19:14;;;;;;;15.37;2.80;;;;;8.70;100674.00;;;;9884476;29;20218;-79
2023/01/11 20:24:16;;;;;;;9.53;3.23;;;;;8.70;100699.00;;;;9863612;29;20211;-78
2023/01/11 20:29:18;;;;;;;6.77;2.13;;;;;8.70;100653.00;;;;9874164;30;20220;-79
2023/01/11 20:34:20;;;;;;;8.23;2.00;;;;;8.70;100698.00;;;;9874196;29;20203;-78
2023/01/11 20:39:22;;;;;;;7.30;1.57;;;;;8.60;100692.00;;;;9892638;29;20192;-79
2023/01/11 20:44:30;;;;;;;8.33;1.80;;;;;8.40;100703.00;;;;9889955;29;20226;-79
2023/01/11 20:49:32;;;;;;;8.47;2.20;;;;;8.30;100717.00;;;;9890641;29;20219;-79
2023/01/11 20:54:36;;;;;;;6.97;3.07;;;;;8.20;100717.00;;;;9855947;29;20200;-79
2023/01/11 20:59:38;;;;;;;16.53;2.67;;;;;8.10;100715.00;;;;9861960;29;20272;-80
2023/01/11 21:04:40;;;;;;;9.93;1.97;;;;;8.10;100710.00;;;;9884225;29;20223;-79
2023/01/11 21:09:42;;;;;;;8.03;2.00;;;;;8.00;100710.00;;;;9889912;29;20235;-80
2023/01/11 21:14:44;;;;;;;10.50;1.90;;;;;8.00;100732.00;;;;9848450;29;20208;-80
2023/01/11 21:19:47;;;;;;;9.53;1.70;;;;;7.90;100712.00;;;;9846765;29;20572;-80
2023/01/11 21:24:49;;;;;;;7.80;2.10;;;;;7.90;100684.00;;;;9856795;29;20209;-80
2023/01/11 21:29:51;;;;;;;7.87;2.30;;;;;7.90;100717.00;;;;9871856;29;20208;-80
2023/01/11 21:34:53;;;;;;;7.47;2.83;;;;;7.90;100691.00;;;;9873620;29;20200;-80
2023/01/11 21:39:55;;;;;;;11.70;2.03;;;;;7.80;100675.00;;;;9891023;29;20282;-79
2023/01/11 21:44:57;;;;;;;10.73;2.07;;;;;7.80;100702.00;;;;9858013;29;20200;-80
2023/01/11 21:49:59;;;;;;;6.37;2.37;;;;;7.80;100700.00;;;;9847349;29;20215;-79
2023/01/11 21:55:01;;;;;;;9.50;2.20;;;;;7.80;100690.00;;;;9872681;29;20668;-79
2023/01/11 22:00:04;;;;;;;12.27;2.93;;;;;7.80;100695.00;;;;9863618;29;20314;-78
2023/01/11 22:05:12;;;;;;;8.43;1.93;;;;;7.80;100706.00;;;;9885380;29;20234;-78
2023/01/11 22:10:15;;;;;;;11.83;1.83;;;;;7.80;100696.00;;;;9886363;29;20228;-79
2023/01/11 22:15:17;;;;;;;6.70;1.70;;;;;7.80;100715.00;;;;9859430;29;20672;-79
2023/01/11 22:20:19;;;;;;;10.57;2.17;;;;;7.80;100694.00;;;;9859235;30;20268;-78
2023/01/11 22:25:20;;;;;;;6.87;1.83;;;;;7.80;100686.00;;;;9859252;29;20235;-79
2023/01/11 22:30:22;;;;;;;6.20;1.80;;;;;7.80;100683.00;;;;9850766;29;20623;-79
2023/01/11 22:35:25;;;;;;;7.77;2.47;;;;;7.70;100696.00;;;;9857147;29;20224;-79
2023/01/11 22:40:27;;;;;;;6.47;1.93;;;;;7.70;100689.00;;;;9858414;29;20606;-79
2023/01/11 22:45:29;;;;;;;4.77;1.33;;;;;7.70;100665.00;;;;9855693;29;20200;-80
2023/01/11 22:50:31;;;;;;;2.67;0.93;;;;;7.70;100655.00;;;;9856502;30;20684;-80
2023/01/11 22:55:32;;;;;;;7.23;2.00;;;;;7.70;100684.00;;;;9870619;29;20210;-80
2023/01/11 23:00:35;;;;;;;10.17;1.87;;;;;7.80;100673.00;;;;9875707;29;20667;-80
2023/01/11 23:05:43;;;;;;;7.70;1.97;;;;;7.80;100669.00;;;;9867132;29;20203;-80
2023/01/11 23:10:45;;;;;;;10.40;2.20;;;;;7.90;100663.00;;;;9865486;29;20227;-80
2023/01/11 23:15:53;;;;;;;10.70;2.30;;;;;7.90;100661.00;;;;9861647;30;20594;-80
2023/01/11 23:21:01;;;;;;;10.13;3.00;;;;;7.90;100649.00;;;;9868248;30;20199;-79
2023/01/11 23:26:04;;;;;;;9.20;2.00;;;;;7.90;100659.00;;;;9862473;30;20291;-80
2023/01/11 23:31:15;;;;;;;13.33;3.00;;;;;8.00;100680.00;;;;9858417;30;20253;-81
2023/01/11 23:36:19;;;;;;;11.03;2.13;;;;;8.00;100665.00;;;;9868566;30;20200;-80
2023/01/11 23:52:04;;;;;;;7.70;2.10;;;;;8.10;100660.00;;;;9870138;30;20762;-80
2023/01/11 23:57:06;;;;;;;11.13;2.47;;;;;8.00;100664.00;;;;9869015;30;20684;-81
